createdAt,value
2022-11-29T00:01:03.474Z,53.32
2022-11-29T00:04:07.450Z,53.31
2022-11-29T00:07:10.437Z,52.97
2022-11-29T00:10:14.517Z,52.81
2022-11-29T00:13:18.671Z,52.72
2022-11-29T00:16:22.105Z,52.72
2022-11-29T00:19:26.365Z,53.00
2022-11-29T00:22:30.707Z,52.90
2022-11-29T00:25:34.960Z,52.75
2022-11-29T00:28:38.079Z,52.59
2022-11-29T00:31:45.402Z,52.87
2022-11-29T00:34:49.041Z,52.66
2022-11-29T00:37:53.053Z,52.86
2022-11-29T00:40:56.029Z,52.59
2022-11-29T00:43:59.994Z,52.15
2022-11-29T00:47:03.388Z,51.98
2022-11-29T00:50:07.958Z,51.79
2022-11-29T00:53:11.792Z,51.53
2022-11-29T00:56:18.583Z,51.05
2022-11-29T00:59:22.400Z,51.66
2022-11-29T01:02:26.485Z,51.00
2022-11-29T01:05:31.883Z,50.91
2022-11-29T01:08:36.401Z,50.31
2022-11-29T01:11:40.112Z,49.88
2022-11-29T01:14:44.011Z,49.65
2022-11-29T01:17:49.652Z,49.18
2022-11-29T01:21:05.102Z,49.20
2022-11-29T01:24:09.163Z,49.01
2022-11-29T01:27:12.773Z,48.53
2022-11-29T01:30:18.225Z,48.89
2022-11-29T01:33:21.277Z,49.06
2022-11-29T01:36:25.961Z,49.46
2022-11-29T01:39:29.819Z,49.62
2022-11-29T01:42:33.486Z,49.47
2022-11-29T01:45:39.249Z,49.01
2022-11-29T01:48:42.958Z,48.92
2022-11-29T01:52:03.188Z,49.11
2022-11-29T01:55:08.577Z,48.83
2022-11-29T01:58:13.650Z,48.61
2022-11-29T02:01:17.590Z,48.70
2022-11-29T02:04:22.299Z,48.55
2022-11-29T02:07:26.306Z,48.19
2022-11-29T02:11:05.817Z,48.24
2022-11-29T02:14:22.520Z,48.17
2022-11-29T02:17:31.734Z,48.20
2022-11-29T02:21:10.735Z,47.45
2022-11-29T02:24:49.542Z,47.59
2022-11-29T02:28:26.157Z,47.00
2022-11-29T02:32:06.992Z,46.67
2022-11-29T02:35:31.658Z,46.84
2022-11-29T02:38:57.470Z,45.86
2022-11-29T02:42:28.371Z,45.33
2022-11-29T02:45:52.767Z,45.13
2022-11-29T02:49:37.133Z,45.05
2022-11-29T02:53:17.443Z,44.26
2022-11-29T02:56:53.891Z,44.52
2022-11-29T03:00:18.663Z,44.30
2022-11-29T03:03:48.073Z,44.29
2022-11-29T03:07:03.526Z,44.28
2022-11-29T03:10:18.709Z,45.27
2022-11-29T03:13:43.885Z,45.94
2022-11-29T03:17:13.571Z,45.96
2022-11-29T03:20:28.791Z,45.32
2022-11-29T03:23:49.416Z,45.60
2022-11-29T03:27:01.647Z,45.81
2022-11-29T03:30:09.133Z,45.20
2022-11-29T03:33:18.585Z,45.31
2022-11-29T03:36:36.805Z,44.96
2022-11-29T03:40:12.179Z,44.54
2022-11-29T03:43:27.628Z,44.45
2022-11-29T03:46:36.106Z,44.16
2022-11-29T03:49:45.693Z,43.52
2022-11-29T03:52:55.839Z,44.09
2022-11-29T03:56:05.456Z,43.92
2022-11-29T03:59:15.486Z,43.71
2022-11-29T04:02:19.224Z,43.62
2022-11-29T04:05:42.429Z,42.69
2022-11-29T04:08:51.489Z,41.96
2022-11-29T04:12:19.289Z,41.33
2022-11-29T04:15:37.896Z,41.56
2022-11-29T04:19:35.585Z,41.20
2022-11-29T04:22:54.465Z,41.40
2022-11-29T04:26:34.683Z,40.29
2022-11-29T04:29:53.828Z,40.36
2022-11-29T04:33:43.417Z,39.45
2022-11-29T04:37:04.394Z,39.57
2022-11-29T04:40:11.218Z,39.61
2022-11-29T04:43:39.575Z,39.41
2022-11-29T04:47:12.593Z,39.35
2022-11-29T04:50:31.819Z,39.84
2022-11-29T04:54:15.981Z,40.07
2022-11-29T04:57:42.920Z,40.37
2022-11-29T05:00:55.321Z,40.31
2022-11-29T05:04:22.123Z,40.45
2022-11-29T05:07:37.463Z,40.40
2022-11-29T05:11:12.045Z,40.31
2022-11-29T05:14:42.796Z,40.24
2022-11-29T05:17:49.002Z,40.33
2022-11-29T05:21:13.266Z,40.09
2022-11-29T05:24:51.346Z,39.78
2022-11-29T05:28:33.444Z,40.22
2022-11-29T05:32:05.466Z,41.05
2022-11-29T05:35:42.066Z,41.20
2022-11-29T05:39:23.125Z,41.64
2022-11-29T05:42:51.282Z,41.58
2022-11-29T05:46:13.666Z,42.66
2022-11-29T05:49:27.495Z,42.83
2022-11-29T05:52:57.981Z,44.27
2022-11-29T05:56:16.097Z,44.61
2022-11-29T05:59:28.073Z,44.74
2022-11-29T06:02:52.199Z,44.78
2022-11-29T06:06:04.924Z,44.09
2022-11-29T06:09:14.591Z,44.01
2022-11-29T06:12:22.916Z,43.71
2022-11-29T06:16:05.875Z,43.66
2022-11-29T06:19:30.936Z,43.82
2022-11-29T06:22:53.186Z,43.71
2022-11-29T06:26:24.734Z,43.58
2022-11-29T06:29:40.456Z,42.84
2022-11-29T06:32:53.375Z,42.71
2022-11-29T06:36:15.421Z,42.99
2022-11-29T06:39:19.725Z,43.37
2022-11-29T06:42:23.450Z,44.23
2022-11-29T06:45:27.475Z,44.48
2022-11-29T06:48:42.926Z,44.87
2022-11-29T06:52:13.748Z,45.39
2022-11-29T06:55:53.960Z,45.85
2022-11-29T06:59:36.792Z,46.10
2022-11-29T07:03:03.562Z,46.20
2022-11-29T07:06:23.506Z,46.44
2022-11-29T07:09:36.336Z,46.05
2022-11-29T07:12:39.593Z,45.69
2022-11-29T07:16:22.653Z,45.67
2022-11-29T07:19:37.499Z,46.38
2022-11-29T07:23:03.150Z,46.54
2022-11-29T07:26:15.725Z,46.89
2022-11-29T07:29:40.798Z,47.35
2022-11-29T07:32:59.930Z,47.60
2022-11-29T07:36:27.422Z,48.22
2022-11-29T07:39:31.143Z,48.04
2022-11-29T07:42:40.334Z,48.10
2022-11-29T07:45:44.077Z,48.03
2022-11-29T07:48:47.800Z,47.99
2022-11-29T07:51:51.621Z,48.07
2022-11-29T07:54:55.484Z,48.59
2022-11-29T07:57:59.255Z,48.81
2022-11-29T08:01:03.618Z,48.76
2022-11-29T08:04:07.828Z,49.04
2022-11-29T08:07:11.438Z,48.79
2022-11-29T08:10:17.481Z,48.98
2022-11-29T08:13:21.718Z,49.22
2022-11-29T08:16:25.886Z,48.68
2022-11-29T08:19:29.546Z,48.41
2022-11-29T08:22:32.954Z,48.63
2022-11-29T08:25:37.102Z,48.58
2022-11-29T08:28:40.997Z,48.84
2022-11-29T08:31:45.891Z,48.88
2022-11-29T08:34:49.635Z,48.93
2022-11-29T08:37:55.346Z,49.11
2022-11-29T08:41:06.861Z,49.59
2022-11-29T08:44:10.952Z,49.78
2022-11-29T08:47:33.113Z,50.04
2022-11-29T08:50:36.174Z,50.51
2022-11-29T08:53:42.689Z,50.84
2022-11-29T09:00:11.714Z,51.95
2022-11-29T09:03:33.419Z,52.34
2022-11-29T09:06:43.835Z,52.78
2022-11-29T09:09:47.507Z,53.21
2022-11-29T09:12:51.883Z,53.72
2022-11-29T09:15:55.981Z,53.54
2022-11-29T09:19:00.169Z,53.37
2022-11-29T09:22:04.277Z,53.17
2022-11-29T09:25:08.082Z,53.18
2022-11-29T09:28:13.225Z,53.17
2022-11-29T09:31:18.432Z,52.86
2022-11-29T09:34:22.018Z,53.09
2022-11-29T09:37:26.004Z,52.89
2022-11-29T09:40:39.494Z,52.72
2022-11-29T09:44:06.981Z,52.07
2022-11-29T09:47:24.094Z,52.42
2022-11-29T09:50:34.009Z,52.00
2022-11-29T09:53:53.093Z,51.72
2022-11-29T09:56:58.494Z,51.63
2022-11-29T10:00:16.945Z,51.90
2022-11-29T10:03:26.433Z,51.82
2022-11-29T10:06:44.583Z,51.76
2022-11-29T10:10:29.739Z,51.62
2022-11-29T10:13:36.504Z,51.50
2022-11-29T10:16:45.832Z,51.44
2022-11-29T10:19:58.735Z,51.27
2022-11-29T10:23:28.711Z,51.17
2022-11-29T10:26:35.360Z,51.22
2022-11-29T10:29:39.760Z,51.21
2022-11-29T10:32:46.237Z,51.40
2022-11-29T10:35:53.592Z,51.35
2022-11-29T10:39:02.240Z,51.40
2022-11-29T10:42:31.341Z,51.33
2022-11-29T10:45:56.688Z,51.33
2022-11-29T10:49:03.581Z,51.15
2022-11-29T10:52:10.390Z,51.13
2022-11-29T10:55:19.060Z,51.13
2022-11-29T10:58:28.851Z,51.22
2022-11-29T11:01:37.652Z,51.40
2022-11-29T11:04:47.805Z,51.19
2022-11-29T11:07:58.416Z,51.37
2022-11-29T11:11:04.978Z,51.39
2022-11-29T11:14:22.338Z,51.49
2022-11-29T11:17:30.608Z,51.65
2022-11-29T11:20:37.181Z,51.89
2022-11-29T11:23:52.477Z,52.13
2022-11-29T11:26:57.049Z,52.44
2022-11-29T11:30:01.849Z,52.57
2022-11-29T11:33:09.723Z,52.96
2022-11-29T11:36:28.071Z,52.91
2022-11-29T11:39:33.681Z,53.23
2022-11-29T11:42:41.600Z,53.41
2022-11-29T11:45:53.256Z,53.30
2022-11-29T11:48:56.581Z,53.01
2022-11-29T11:52:02.084Z,54.56
2022-11-29T11:55:27.249Z,53.04
2022-11-29T11:58:55.305Z,53.39
2022-11-29T12:01:58.364Z,53.23
2022-11-29T12:05:03.980Z,53.25
2022-11-29T12:08:12.632Z,53.33
2022-11-29T12:11:18.910Z,53.40
2022-11-29T12:14:39.232Z,53.18
2022-11-29T12:17:50.309Z,53.31
2022-11-29T12:21:10.709Z,53.29
2022-11-29T12:24:24.900Z,53.40
2022-11-29T12:27:29.016Z,53.77
2022-11-29T12:30:33.858Z,53.79
2022-11-29T12:33:37.595Z,53.81
2022-11-29T12:36:58.265Z,53.36
2022-11-29T12:40:27.778Z,53.46
2022-11-29T12:43:53.752Z,53.28
2022-11-29T12:47:34.725Z,53.08
2022-11-29T12:50:44.697Z,52.91
2022-11-29T12:53:57.192Z,52.60
2022-11-29T12:57:15.542Z,52.63
2022-11-29T13:00:21.364Z,52.61
2022-11-29T13:03:41.053Z,52.35
2022-11-29T13:06:59.680Z,52.70
2022-11-29T13:10:03.821Z,52.49
2022-11-29T13:13:36.325Z,52.32
2022-11-29T13:16:46.307Z,52.58
2022-11-29T13:20:11.639Z,52.72
2022-11-29T13:23:45.911Z,52.71
2022-11-29T13:26:53.497Z,52.77
2022-11-29T13:29:58.045Z,52.72
2022-11-29T13:33:13.092Z,52.95
2022-11-29T13:36:34.496Z,52.98
2022-11-29T13:39:42.609Z,52.96
2022-11-29T13:42:51.985Z,53.25
2022-11-29T13:46:24.180Z,53.28
2022-11-29T13:49:54.122Z,53.70
2022-11-29T13:53:05.361Z,53.32
2022-11-29T13:56:15.934Z,53.06
2022-11-29T13:59:25.263Z,53.02
2022-11-29T14:02:31.832Z,53.05
2022-11-29T14:05:44.664Z,53.41
2022-11-29T14:09:25.442Z,53.35
2022-11-29T14:12:29.462Z,53.68
2022-11-29T14:15:33.882Z,53.33
2022-11-29T14:18:37.659Z,53.62
2022-11-29T14:22:02.657Z,53.94
2022-11-29T14:25:49.886Z,53.57
2022-11-29T14:28:47.737Z,53.45
2022-11-29T14:31:54.012Z,53.65
2022-11-29T14:35:13.331Z,53.90
2022-11-29T14:38:30.987Z,54.06
2022-11-29T14:42:07.311Z,54.01
2022-11-29T14:45:33.131Z,54.17
2022-11-29T14:48:37.779Z,54.52
2022-11-29T14:52:00.617Z,54.65
2022-11-29T14:55:16.182Z,54.96
2022-11-29T14:58:21.611Z,55.04
2022-11-29T15:01:25.664Z,55.24
2022-11-29T15:04:35.471Z,55.36
2022-11-29T15:07:50.946Z,55.07
2022-11-29T15:11:20.558Z,55.10
2022-11-29T15:14:47.669Z,55.20
2022-11-29T15:18:21.263Z,55.77
2022-11-29T15:21:47.484Z,55.95
2022-11-29T15:25:17.291Z,56.06
2022-11-29T15:28:28.217Z,55.53
2022-11-29T15:31:32.819Z,55.47
2022-11-29T15:34:48.492Z,55.75
2022-11-29T15:37:54.295Z,55.34
2022-11-29T15:40:59.005Z,55.09
2022-11-29T15:44:06.136Z,55.46
2022-11-29T15:47:22.219Z,54.93
2022-11-29T15:50:34.444Z,54.89
2022-11-29T15:53:54.001Z,54.93
2022-11-29T15:57:12.187Z,54.96
2022-11-29T16:00:22.137Z,55.27
2022-11-29T16:03:31.056Z,55.26
2022-11-29T16:06:42.052Z,55.07
2022-11-29T16:09:51.251Z,55.31
2022-11-29T16:12:58.630Z,55.25
2022-11-29T16:16:11.665Z,55.11
2022-11-29T16:19:21.310Z,54.72
2022-11-29T16:22:25.617Z,54.55
2022-11-29T16:25:33.288Z,54.61
2022-11-29T16:28:46.725Z,54.66
2022-11-29T16:31:50.691Z,54.57
2022-11-29T16:34:54.597Z,54.38
2022-11-29T16:37:57.980Z,54.27
2022-11-29T16:41:07.037Z,54.06
2022-11-29T16:44:50.877Z,54.10
2022-11-29T16:48:01.369Z,54.78
2022-11-29T16:51:10.910Z,54.80
2022-11-29T16:54:21.253Z,55.07
2022-11-29T16:57:26.080Z,54.22
2022-11-29T17:00:32.640Z,54.17
2022-11-29T17:03:36.414Z,53.93
2022-11-29T17:06:40.509Z,53.36
2022-11-29T17:09:44.429Z,53.17
2022-11-29T17:12:48.866Z,52.91
2022-11-29T17:15:52.659Z,52.90
2022-11-29T17:18:56.003Z,53.16
2022-11-29T17:21:59.986Z,53.08
2022-11-29T17:25:04.443Z,53.04
2022-11-29T17:28:08.122Z,52.98
2022-11-29T17:31:18.006Z,53.00
2022-11-29T17:34:21.594Z,52.97
2022-11-29T17:37:25.646Z,52.89
2022-11-29T17:40:28.939Z,52.90
2022-11-29T17:43:35.758Z,52.95
2022-11-29T17:46:39.815Z,53.18
2022-11-29T17:49:43.984Z,53.24
2022-11-29T17:52:47.979Z,53.34
2022-11-29T17:55:52.095Z,53.49
2022-11-29T17:58:57.673Z,53.59
2022-11-29T18:02:02.921Z,54.17
2022-11-29T18:05:06.559Z,55.23
2022-11-29T18:08:10.997Z,56.45
2022-11-29T18:11:24.848Z,56.84
2022-11-29T18:14:29.696Z,56.70
2022-11-29T18:17:33.393Z,56.10
2022-11-29T18:20:37.760Z,55.76
2022-11-29T18:23:43.391Z,55.61
2022-11-29T18:26:48.010Z,55.43
2022-11-29T18:29:51.809Z,55.28
2022-11-29T18:32:57.552Z,55.56
2022-11-29T18:36:10.924Z,55.53
2022-11-29T18:39:19.929Z,55.78
2022-11-29T18:42:23.373Z,55.91
2022-11-29T18:45:27.430Z,55.97
2022-11-29T18:48:31.270Z,56.11
2022-11-29T18:51:35.777Z,55.99
2022-11-29T18:54:39.459Z,55.95
2022-11-29T18:57:43.958Z,55.75
2022-11-29T19:00:47.647Z,55.29
2022-11-29T19:03:54.127Z,55.30
2022-11-29T19:06:57.707Z,54.27
2022-11-29T19:10:02.231Z,53.69
2022-11-29T19:13:05.945Z,53.20
2022-11-29T19:16:13.563Z,53.24
2022-11-29T19:19:19.344Z,53.95
2022-11-29T19:22:23.515Z,53.67
2022-11-29T19:25:27.009Z,53.21
2022-11-29T19:28:31.072Z,53.24
2022-11-29T19:31:34.669Z,52.07
2022-11-29T19:34:38.679Z,51.65
2022-11-29T19:37:42.497Z,51.35
2022-11-29T19:40:46.516Z,51.58
2022-11-29T19:43:50.260Z,51.63
2022-11-29T19:46:54.496Z,50.63
2022-11-29T19:50:02.367Z,50.05
2022-11-29T19:53:07.090Z,50.33
2022-11-29T19:56:16.060Z,50.59
2022-11-29T19:59:20.049Z,50.90
2022-11-29T20:02:23.456Z,50.66
2022-11-29T20:05:28.081Z,50.78
2022-11-29T20:08:32.213Z,51.57
2022-11-29T20:11:36.421Z,51.79
2022-11-29T20:14:40.224Z,51.88
2022-11-29T20:17:43.924Z,52.08
2022-11-29T20:20:47.947Z,51.49
2022-11-29T20:23:59.452Z,52.47
2022-11-29T20:27:03.045Z,51.42
2022-11-29T20:30:08.629Z,51.59
2022-11-29T20:33:18.051Z,51.79
2022-11-29T20:36:52.323Z,52.09
2022-11-29T20:40:02.869Z,52.01
2022-11-29T20:43:32.893Z,52.06
2022-11-29T20:46:36.111Z,51.20
2022-11-29T20:49:40.159Z,50.97
2022-11-29T20:53:00.161Z,50.65
2022-11-29T20:56:05.849Z,51.25
2022-11-29T20:59:09.550Z,52.19
2022-11-29T21:02:13.526Z,52.54
2022-11-29T21:05:17.375Z,52.47
2022-11-29T21:08:22.864Z,51.89
2022-11-29T21:11:26.389Z,51.36
2022-11-29T21:14:29.735Z,51.20
2022-11-29T21:17:33.864Z,50.97
2022-11-29T21:20:38.126Z,50.65
2022-11-29T21:24:07.320Z,50.48
2022-11-29T21:27:18.798Z,50.63
2022-11-29T21:30:25.437Z,50.50
2022-11-29T21:33:28.977Z,49.53
2022-11-29T21:36:32.046Z,49.22
2022-11-29T21:39:35.645Z,49.12
2022-11-29T21:42:39.312Z,48.86
2022-11-29T21:45:43.884Z,49.11
2022-11-29T21:48:47.594Z,49.45
2022-11-29T21:51:50.859Z,49.41
2022-11-29T21:54:53.902Z,49.13
2022-11-29T21:57:56.850Z,49.18
2022-11-29T22:01:07.090Z,49.19
2022-11-29T22:04:10.880Z,49.32
2022-11-29T22:07:13.799Z,49.82
2022-11-29T22:10:17.491Z,49.87
2022-11-29T22:13:20.748Z,49.96
2022-11-29T22:16:23.969Z,49.73
2022-11-29T22:19:32.396Z,50.79
2022-11-29T22:22:36.359Z,50.92
2022-11-29T22:25:40.008Z,50.61
2022-11-29T22:28:42.956Z,50.89
2022-11-29T22:31:48.597Z,51.40
2022-11-29T22:34:52.584Z,51.71
2022-11-29T22:37:55.512Z,51.63
2022-11-29T22:41:04.667Z,52.12
2022-11-29T22:44:08.488Z,51.71
2022-11-29T22:47:14.028Z,51.84
2022-11-29T22:50:17.311Z,52.22
2022-11-29T22:53:21.431Z,52.75
2022-11-29T22:56:28.392Z,53.19
2022-11-29T22:59:34.050Z,53.54
2022-11-29T23:02:37.431Z,53.60
2022-11-29T23:05:41.553Z,53.86
2022-11-29T23:08:47.508Z,53.48
2022-11-29T23:11:53.562Z,52.90
2022-11-29T23:14:57.299Z,52.30
2022-11-29T23:18:01.583Z,51.94
2022-11-29T23:21:11.083Z,52.06
2022-11-29T23:24:16.339Z,52.68
2022-11-29T23:27:19.949Z,53.01
2022-11-29T23:30:23.335Z,53.15
2022-11-29T23:33:27.839Z,53.31
2022-11-29T23:36:31.796Z,53.49
2022-11-29T23:39:35.275Z,53.66
2022-11-29T23:42:42.365Z,53.89
2022-11-29T23:45:46.773Z,53.85
2022-11-29T23:48:50.951Z,53.53
2022-11-29T23:51:53.896Z,53.55
2022-11-29T23:54:56.807Z,53.73
2022-11-29T23:58:02.010Z,53.15
